Time;durP1;ratioP1;P1;durP2;ratioP2;P2;SDS_P1;SDS_P2;PMS_P1;PMS_P2;Temp;Humidity;BMP_temperature;BMP_pressure;BME280_temperature;BME280_humidity;BME280_pressure;Samples;Min_cycle;Max_cycle;Signal;HPM_P1;HPM_P2
2023/10/05 00:03:32;;;;;;;9.90;4.30;;;;;;;10.58;79.77;100506.45;219155;1256;139546;-73
2023/10/05 00:08:37;;;;;;;7.50;3.40;;;;;;;10.56;79.93;100505.44;218809;1256;139306;-72
2023/10/05 00:13:44;;;;;;;9.20;4.50;;;;;;;10.54;79.71;100501.18;218157;1257;139992;-71
2023/10/05 00:18:50;;;;;;;4.10;3.40;;;;;;;10.51;80.03;100501.29;218249;1257;140539;-72
2023/10/05 00:23:58;;;;;;;8.80;3.50;;;;;;;10.50;80.23;100492.35;219086;1259;140521;-70
2023/10/05 00:39:31;;;;;;;5.90;3.60;;;;;;;10.49;80.46;100477.55;218293;1257;140755;-79
2023/10/05 00:44:40;;;;;;;7.30;4.20;;;;;;;10.47;80.63;100480.23;218322;1258;140485;-76
2023/10/05 00:49:59;;;;;;;6.50;3.80;;;;;;;10.45;80.68;100480.36;218307;1259;139562;-76
2023/10/05 00:55:12;;;;;;;10.30;5.20;;;;;;;10.44;80.72;100487.22;218792;1257;139949;-79
2023/10/05 01:00:27;;;;;;;6.60;3.90;;;;;;;10.42;80.82;100491.20;218250;1257;140023;-75
2023/10/05 01:05:47;;;;;;;6.00;4.30;;;;;;;10.38;80.89;100489.73;219235;1259;138911;-77
2023/10/05 01:10:54;;;;;;;18.00;5.00;;;;;;;10.32;81.01;100481.58;218035;1259;140192;-77
2023/10/05 01:16:15;;;;;;;9.40;5.20;;;;;;;10.27;80.98;100468.89;218741;1256;140351;-76
2023/10/05 01:21:25;;;;;;;7.50;4.60;;;;;;;10.25;81.14;100467.10;220145;1259;140244;-78
2023/10/05 01:26:32;;;;;;;9.60;5.90;;;;;;;10.25;81.32;100453.32;218626;1257;140702;-76
2023/10/05 01:31:39;;;;;;;;;;;;;;;10.27;81.42;100450.69;220354;1258;140697;-81
2023/10/05 01:36:43;;;;;;;5.90;4.60;;;;;;;10.26;81.59;100457.70;218781;1259;127146;-79
2023/10/05 01:41:48;;;;;;;17.80;6.30;;;;;;;10.28;81.60;100454.26;220128;1258;141347;-81
2023/10/05 01:46:57;;;;;;;9.10;4.90;;;;;;;10.27;81.52;100446.99;218448;1260;140740;-81
2023/10/05 01:52:03;;;;;;;6.70;4.30;;;;;;;10.25;81.48;100448.08;218830;1257;139469;-79
2023/10/05 01:57:09;;;;;;;7.60;5.30;;;;;;;10.23;81.59;100453.17;218569;1259;140320;-81
2023/10/05 02:02:15;;;;;;;9.30;5.80;;;;;;;10.19;81.65;100447.56;218611;1260;139510;-74
2023/10/05 02:07:23;;;;;;;7.30;5.40;;;;;;;10.17;81.68;100439.77;218506;1260;140171;-73
2023/10/05 02:12:29;;;;;;;8.90;6.30;;;;;;;10.14;81.74;100442.45;218264;1259;139369;-77
2023/10/05 02:17:40;;;;;;;9.90;5.30;;;;;;;10.12;81.83;100444.55;218323;1257;140978;-81
2023/10/05 02:22:49;;;;;;;7.70;4.90;;;;;;;10.06;81.98;100433.79;218636;1260;140573;-80
2023/10/05 02:27:56;;;;;;;7.80;5.60;;;;;;;10.00;82.04;100435.86;218372;1260;139952;-80
2023/10/05 02:33:04;;;;;;;7.60;4.90;;;;;;;9.97;81.99;100435.27;218278;1257;139562;-74
2023/10/05 02:38:11;;;;;;;11.00;5.70;;;;;;;9.93;82.10;100438.16;220291;1257;139960;-76
2023/10/05 02:43:17;;;;;;;9.30;6.10;;;;;;;9.88;82.18;100432.28;218124;1257;139649;-79
2023/10/05 02:48:24;;;;;;;12.80;5.90;;;;;;;9.83;82.15;100435.13;218136;1258;139379;-73
2023/10/05 02:53:46;;;;;;;10.50;6.80;;;;;;;9.79;82.20;100442.40;218467;1260;139556;-70
2023/10/05 02:58:54;;;;;;;10.10;5.20;;;;;;;9.75;82.28;100438.38;218721;1257;140043;-81
2023/10/05 03:04:21;;;;;;;9.80;6.90;;;;;;;9.70;82.31;100435.32;219210;1256;141837;-80
2023/10/05 03:09:26;;;;;;;10.30;6.20;;;;;;;9.61;82.55;100431.34;218048;1260;139987;-79
2023/10/05 03:14:33;;;;;;;9.10;5.40;;;;;;;9.55;82.60;100423.22;218912;1257;140996;-80
2023/10/05 03:19:39;;;;;;;11.80;6.50;;;;;;;9.47;82.72;100424.08;218837;1256;139951;-80
2023/10/05 03:24:44;;;;;;;12.80;6.70;;;;;;;9.40;82.69;100419.89;218155;1257;139761;-79
2023/10/05 03:30:03;;;;;;;8.20;5.30;;;;;;;9.36;82.95;100412.16;220427;1257;139779;-81
2023/10/05 03:35:11;;;;;;;12.70;5.70;;;;;;;9.30;82.97;100414.18;219631;1256;140545;-80
2023/10/05 03:40:27;;;;;;;7.50;5.20;;;;;;;9.27;83.04;100415.73;219656;1257;141764;-80
2023/10/05 03:45:33;;;;;;;10.40;6.00;;;;;;;9.24;82.95;100409.73;218249;1259;139719;-80
2023/10/05 03:50:38;;;;;;;10.50;6.30;;;;;;;9.19;83.00;100409.39;218203;1260;140604;-78
2023/10/05 03:55:47;;;;;;;9.00;5.90;;;;;;;9.13;83.05;100396.41;219357;1257;141659;-80
2023/10/05 04:00:53;;;;;;;7.20;5.30;;;;;;;9.06;83.12;100392.33;217924;1257;139506;-72
2023/10/05 04:05:58;;;;;;;11.40;5.90;;;;;;;9.02;83.30;100383.34;218380;1257;139620;-79
2023/10/05 04:11:04;;;;;;;10.30;6.70;;;;;;;9.00;83.47;100374.17;217917;1257;139965;-78
2023/10/05 04:16:17;;;;;;;11.60;5.60;;;;;;;8.97;83.58;100361.25;217946;1257;139654;-77
2023/10/05 04:21:22;;;;;;;11.70;6.10;;;;;;;8.97;83.61;100351.23;218217;1257;139817;-77
2023/10/05 04:26:37;;;;;;;7.30;4.90;;;;;;;8.93;83.67;100333.44;217815;1257;138994;-78
2023/10/05 04:31:48;;;;;;;13.30;6.20;;;;;;;8.89;83.55;100323.63;218275;1258;139322;-76
2023/10/05 08:00:03;;;;;;;47.70;7.60;;;;;;;16.54;67.75;100293.20;205567;1306;5667928;-70
2023/10/05 09:21:42;;;;;;;8.40;3.80;;;;;;;17.15;65.30;100257.73;215420;1278;358886;-74
2023/10/05 09:26:55;;;;;;;8.70;3.20;;;;;;;17.14;65.36;100245.44;214787;1270;1240377;-72
2023/10/05 09:32:00;;;;;;;6.40;2.60;;;;;;;17.09;65.19;100242.33;217582;1269;139605;-72
2023/10/05 09:37:07;;;;;;;7.10;4.10;;;;;;;16.97;64.96;100236.25;217129;1268;139056;-73
2023/10/05 09:42:17;;;;;;;4.10;2.80;;;;;;;16.73;64.90;100232.98;216834;1268;139358;-72
2023/10/05 09:47:33;;;;;;;8.20;3.00;;;;;;;16.68;65.30;100229.40;216663;1272;138357;-72
2023/10/05 09:52:45;;;;;;;9.30;3.70;;;;;;;16.78;65.21;100237.42;216891;1269;139536;-72
2023/10/05 09:57:57;;;;;;;13.10;4.60;;;;;;;16.95;65.30;100236.51;216478;1269;139374;-72
2023/10/05 10:03:04;;;;;;;7.40;3.30;;;;;;;17.12;65.22;100233.54;216086;1272;139906;-74
2023/10/05 10:08:34;;;;;;;10.80;4.60;;;;;;;17.31;65.04;100237.52;216370;1268;140083;-72
2023/10/05 10:13:39;;;;;;;10.60;4.20;;;;;;;17.22;64.37;100243.54;216851;1269;140191;-75
2023/10/05 10:18:45;;;;;;;12.70;4.60;;;;;;;16.96;64.33;100245.19;216299;1270;139532;-74
2023/10/05 10:24:01;;;;;;;5.70;3.90;;;;;;;16.83;64.30;100245.56;217059;1269;138822;-72
2023/10/05 10:29:12;;;;;;;10.50;4.80;;;;;;;16.60;64.34;100246.52;216588;1270;138101;-73
2023/10/05 10:34:43;;;;;;;10.80;5.20;;;;;;;16.50;64.59;100230.42;217171;1270;140193;-71
2023/10/05 10:39:49;;;;;;;7.50;4.50;;;;;;;16.63;64.72;100228.17;216380;1270;139601;-72
2023/10/05 10:50:08;;;;;;;6.50;3.40;;;;;;;16.96;64.33;100218.90;218033;1269;138804;-72
2023/10/05 10:55:16;;;;;;;7.60;4.00;;;;;;;17.05;64.29;100208.76;217018;1271;139450;-73
2023/10/05 11:05:54;;;;;;;6.00;4.20;;;;;;;17.13;63.65;100199.44;217541;1270;139845;-74
2023/10/05 11:11:00;;;;;;;7.00;3.90;;;;;;;17.06;63.05;100193.61;217221;1272;138761;-73
2023/10/05 11:16:09;;;;;;;7.60;3.80;;;;;;;17.21;63.21;100181.89;217318;1269;139300;-74
2023/10/05 11:21:18;;;;;;;5.10;2.90;;;;;;;17.46;63.35;100179.05;217101;1269;139245;-73
2023/10/05 11:27:14;;;;;;;4.60;3.60;;;;;;;17.58;62.95;100181.11;217218;1269;138801;-72
2023/10/05 11:32:03;;;;;;;5.80;3.50;;;;;;;17.49;62.64;100169.83;217029;1269;138680;-70
2023/10/05 11:37:30;;;;;;;6.80;3.30;;;;;;;17.43;62.25;100176.73;217041;1272;138995;-74
2023/10/05 11:42:41;;;;;;;6.50;3.00;;;;;;;17.46;62.14;100175.80;217473;1272;138801;-75
2023/10/05 11:47:52;;;;;;;8.00;3.60;;;;;;;17.57;62.07;100174.42;216307;1270;139959;-72
2023/10/05 11:52:58;;;;;;;5.10;3.10;;;;;;;17.62;61.85;100164.67;216509;1269;138511;-77
2023/10/05 11:58:05;;;;;;;4.50;3.20;;;;;;;17.64;61.65;100172.61;216899;1272;230914;-74
2023/10/05 12:03:11;;;;;;;5.80;2.70;;;;;;;17.54;61.33;100165.48;216344;1269;140067;-77
2023/10/05 12:08:19;;;;;;;5.90;3.40;;;;;;;17.50;61.25;100166.38;216402;1269;151665;-70
2023/10/05 12:13:23;;;;;;;3.10;2.50;;;;;;;17.40;60.76;100162.40;216976;1270;139785;-67
2023/10/05 12:18:31;;;;;;;2.20;1.60;;;;;;;17.22;60.68;100156.51;216498;1269;138709;-67
2023/10/05 12:23:36;;;;;;;6.40;2.20;;;;;;;17.11;60.42;100154.35;216566;1269;140030;-68
2023/10/05 12:28:43;;;;;;;7.30;3.00;;;;;;;17.01;60.16;100152.98;216304;1272;139772;-68
2023/10/05 12:33:50;;;;;;;7.60;2.70;;;;;;;16.98;60.21;100159.34;217088;1266;139432;-68
2023/10/05 12:38:56;;;;;;;7.50;2.80;;;;;;;17.09;60.39;100153.70;216658;1266;139204;-68
2023/10/05 12:44:09;;;;;;;5.90;2.90;;;;;;;17.34;60.43;100150.65;216416;1268;140626;-66
2023/10/05 12:49:16;;;;;;;4.60;2.40;;;;;;;17.64;60.35;100147.74;217265;1266;140819;-67
2023/10/05 12:54:34;;;;;;;11.50;3.40;;;;;;;17.67;59.59;100143.34;218331;1266;139674;-71
2023/10/05 12:59:42;;;;;;;6.10;2.10;;;;;;;17.55;59.70;100138.99;216944;1268;139626;-67
2023/10/05 13:04:48;;;;;;;5.80;3.20;;;;;;;17.49;59.89;100141.42;216779;1266;140401;-71
2023/10/05 13:10:08;;;;;;;5.40;3.00;;;;;;;17.35;59.60;100133.13;216627;1266;139955;-71
2023/10/05 13:15:15;;;;;;;4.50;2.50;;;;;;;17.19;59.66;100132.52;217861;1268;139153;-67
2023/10/05 13:20:24;;;;;;;4.90;2.40;;;;;;;17.08;59.87;100134.05;219370;1266;139605;-69
2023/10/05 13:25:29;;;;;;;12.90;3.60;;;;;;;17.01;60.25;100138.17;216645;1269;139147;-68
2023/10/05 13:30:40;;;;;;;2.90;2.10;;;;;;;16.88;59.87;100133.77;216629;1266;140073;-67
2023/10/05 13:35:49;;;;;;;7.40;3.30;;;;;;;16.74;60.05;100133.88;218083;1266;139340;-73
2023/10/05 13:41:07;;;;;;;4.20;2.90;;;;;;;16.66;60.20;100137.66;216826;1269;139255;-72
2023/10/05 13:46:16;;;;;;;3.10;2.70;;;;;;;16.63;60.29;100133.33;216999;1269;139763;-74
2023/10/05 13:51:23;;;;;;;6.40;3.40;;;;;;;16.53;60.29;100129.08;216970;1268;140059;-76
2023/10/05 13:56:30;;;;;;;3.90;2.10;;;;;;;16.42;60.49;100134.70;217343;1268;138643;-74
2023/10/05 14:01:40;;;;;;;4.10;2.90;;;;;;;16.33;60.67;100138.96;216638;1269;138367;-71
2023/10/05 14:06:45;;;;;;;10.60;2.90;;;;;;;16.26;60.72;100138.27;216880;1266;139362;-73
2023/10/05 14:11:54;;;;;;;5.10;3.10;;;;;;;16.21;60.77;100136.81;216416;1271;139511;-71
2023/10/05 14:17:06;;;;;;;9.00;3.70;;;;;;;16.16;60.94;100132.29;216452;1266;139134;-73
2023/10/05 14:22:12;;;;;;;7.50;3.20;;;;;;;16.11;60.97;100131.66;216661;1268;141015;-72
2023/10/05 14:27:20;;;;;;;4.00;2.80;;;;;;;16.06;61.19;100132.98;216766;1269;140637;-71
2023/10/05 14:32:36;;;;;;;5.70;2.60;;;;;;;15.99;61.37;100136.48;216476;1269;139309;-73
2023/10/05 14:37:51;;;;;;;4.00;2.50;;;;;;;15.89;61.77;100137.34;217113;1269;139447;-73
2023/10/05 14:43:01;;;;;;;10.50;4.40;;;;;;;15.82;62.25;100140.91;216937;1266;142371;-72
2023/10/05 14:48:08;;;;;;;4.50;3.10;;;;;;;15.74;62.64;100146.59;216970;1266;140433;-71
2023/10/05 14:53:13;;;;;;;5.80;2.80;;;;;;;15.62;63.19;100159.83;217383;1266;138820;-78
2023/10/05 14:58:20;;;;;;;9.10;4.00;;;;;;;15.44;64.20;100165.41;218582;1268;141744;-78
2023/10/05 15:03:25;;;;;;;14.20;3.70;;;;;;;15.19;64.78;100161.64;218078;1263;151291;-78
2023/10/05 15:08:36;;;;;;;9.30;3.30;;;;;;;14.96;65.38;100158.37;217356;1263;139795;-79
2023/10/05 15:13:43;;;;;;;8.20;3.60;;;;;;;14.84;65.91;100173.16;217493;1264;140304;-80
2023/10/05 15:18:47;;;;;;;9.30;3.50;;;;;;;14.75;66.58;100178.85;217658;1267;139401;-78
2023/10/05 15:23:52;;;;;;;9.00;3.90;;;;;;;14.61;67.32;100188.19;217407;1265;140589;-77
2023/10/05 15:28:59;;;;;;;8.60;5.30;;;;;;;14.39;68.27;100191.02;217538;1263;140494;-78
2023/10/05 15:34:05;;;;;;;14.90;5.30;;;;;;;14.26;69.18;100199.67;217680;1266;141284;-78
2023/10/05 15:39:10;;;;;;;6.80;5.00;;;;;;;14.15;69.78;100195.23;216974;1263;140392;-74
2023/10/05 15:44:15;;;;;;;7.80;4.70;;;;;;;14.09;70.51;100197.08;217032;1264;140680;-78
2023/10/05 15:49:19;;;;;;;8.10;4.00;;;;;;;14.03;70.91;100196.35;217672;1262;139470;-78
2023/10/05 15:54:38;;;;;;;8.20;3.70;;;;;;;13.92;71.39;100203.69;217289;1266;139746;-76
2023/10/05 15:59:43;;;;;;;8.90;4.70;;;;;;;13.84;71.90;100207.80;217027;1263;139405;-76
2023/10/05 16:04:51;;;;;;;5.30;3.60;;;;;;;13.74;72.50;100211.25;217219;1263;139541;-72
2023/10/05 16:10:00;;;;;;;5.90;3.70;;;;;;;13.68;72.95;100214.80;217007;1264;139617;-73
2023/10/05 16:15:09;;;;;;;6.60;4.00;;;;;;;13.64;73.43;100215.25;217665;1266;139363;-73
2023/10/05 16:20:16;;;;;;;5.20;4.10;;;;;;;13.56;73.79;100221.02;216982;1266;139653;-72
2023/10/05 16:25:26;;;;;;;6.00;3.10;;;;;;;13.51;74.14;100229.82;217480;1263;140178;-73
2023/10/05 16:30:32;;;;;;;3.50;2.40;;;;;;;13.42;74.66;100232.56;217607;1265;139354;-72
2023/10/05 16:35:40;;;;;;;5.90;3.10;;;;;;;13.35;74.90;100233.66;217813;1263;139774;-73
2023/10/05 16:40:46;;;;;;;6.90;4.00;;;;;;;13.27;75.08;100236.89;217821;1262;140155;-73
2023/10/05 16:45:50;;;;;;;6.80;3.40;;;;;;;13.23;75.38;100247.03;217031;1263;140723;-73
2023/10/05 16:50:57;;;;;;;12.60;3.30;;;;;;;13.20;75.83;100248.73;217292;1264;141631;-72
2023/10/05 16:56:07;;;;;;;5.30;3.50;;;;;;;13.18;76.31;100250.04;217582;1264;142560;-73
2023/10/05 17:01:15;;;;;;;10.10;3.70;;;;;;;13.17;76.52;100261.11;219152;1265;139948;-76
2023/10/05 17:06:21;;;;;;;7.60;3.30;;;;;;;13.19;76.61;100267.73;217864;1264;139796;-81
2023/10/05 17:11:27;;;;;;;11.70;4.90;;;;;;;13.20;76.97;100270.96;217709;1262;139833;-75
2023/10/05 17:16:36;;;;;;;8.20;4.00;;;;;;;13.21;77.07;100269.91;217700;1265;139374;-77
2023/10/05 17:21:40;;;;;;;8.10;4.50;;;;;;;13.20;77.13;100273.69;217558;1265;140902;-80
2023/10/05 17:26:46;;;;;;;9.10;4.40;;;;;;;13.18;77.45;100272.00;217128;1266;138988;-84
2023/10/05 17:31:52;;;;;;;14.00;5.50;;;;;;;13.16;77.66;100276.97;217380;1265;139599;-87
2023/10/05 17:36:57;;;;;;;16.90;4.80;;;;;;;13.13;77.90;100279.30;217142;1264;140430;-73
2023/10/05 17:42:06;;;;;;;5.60;3.90;;;;;;;13.11;77.98;100274.11;217024;1265;140499;-80
2023/10/05 17:47:12;;;;;;;7.70;4.30;;;;;;;13.09;78.25;100280.00;217040;1262;143767;-79
2023/10/05 17:52:17;;;;;;;6.00;4.50;;;;;;;13.05;78.39;100280.08;217239;1266;142281;-70
2023/10/05 17:57:25;;;;;;;5.80;4.20;;;;;;;12.97;78.25;100284.63;217152;1263;140625;-76
2023/10/05 18:02:32;;;;;;;9.40;4.00;;;;;;;12.91;78.77;100285.30;217669;1264;141125;-75
2023/10/05 18:07:38;;;;;;;6.00;4.20;;;;;;;12.85;78.63;100289.79;217138;1264;139868;-79
2023/10/05 18:12:44;;;;;;;6.70;3.40;;;;;;;12.80;78.75;100289.48;217000;1264;140697;-76
2023/10/05 18:17:50;;;;;;;3.40;2.80;;;;;;;12.76;78.81;100294.48;216673;1267;140145;-74
2023/10/05 18:22:55;;;;;;;5.80;2.90;;;;;;;12.72;78.83;100304.48;216650;1267;142468;-74
2023/10/05 18:28:08;;;;;;;10.10;5.10;;;;;;;12.63;78.65;100302.84;217276;1263;140629;-72
2023/10/05 18:33:15;;;;;;;3.80;3.30;;;;;;;12.53;79.09;100307.43;218006;1263;140810;-77
2023/10/05 18:38:21;;;;;;;4.90;3.30;;;;;;;12.47;79.42;100315.55;217667;1264;139995;-79
2023/10/05 18:43:25;;;;;;;5.50;3.50;;;;;;;12.45;79.57;100315.14;217157;1263;141283;-77
2023/10/05 18:48:31;;;;;;;5.30;3.50;;;;;;;12.45;79.81;100319.74;217052;1263;139724;-77
2023/10/05 18:53:37;;;;;;;9.10;4.60;;;;;;;12.46;80.05;100323.60;217862;1264;140661;-72
2023/10/05 18:58:40;;;;;;;5.30;4.70;;;;;;;12.45;80.46;100328.71;216960;1267;140713;-73
2023/10/05 19:03:46;;;;;;;8.20;4.60;;;;;;;12.46;80.33;100331.63;217021;1266;140598;-74
2023/10/05 19:08:53;;;;;;;;;;;;;;;12.48;80.69;100336.44;217635;1264;141050;-76
2023/10/05 19:13:59;;;;;;;5.30;4.80;;;;;;;12.46;80.75;100337.63;218758;1264;127986;-72
2023/10/05 19:19:05;;;;;;;4.70;4.20;;;;;;;12.47;80.78;100342.30;218481;1264;140649;-77
2023/10/05 19:24:09;;;;;;;5.00;3.70;;;;;;;12.47;80.97;100341.35;217297;1265;139422;-77
2023/10/05 19:29:16;;;;;;;8.90;4.30;;;;;;;12.50;80.98;100343.91;216959;1265;141983;-73
2023/10/05 19:34:22;;;;;;;6.30;3.80;;;;;;;12.51;80.96;100350.92;217422;1266;140079;-77
2023/10/05 19:39:29;;;;;;;7.20;4.40;;;;;;;12.49;81.05;100357.63;216979;1264;140160;-77
2023/10/05 19:44:37;;;;;;;6.50;4.50;;;;;;;12.44;81.10;100364.85;216851;1264;140596;-73
2023/10/05 19:49:42;;;;;;;5.50;3.60;;;;;;;12.42;81.33;100369.41;216720;1262;140911;-74
2023/10/05 19:54:49;;;;;;;9.30;4.90;;;;;;;12.39;81.03;100374.92;217350;1264;139839;-73
2023/10/05 19:59:59;;;;;;;7.50;4.10;;;;;;;12.33;81.17;100384.23;217395;1264;140424;-77
2023/10/05 20:05:05;;;;;;;5.20;4.70;;;;;;;12.27;81.11;100384.52;216785;1263;140864;-81
2023/10/05 20:10:11;;;;;;;7.70;4.80;;;;;;;12.22;81.39;100385.41;216966;1263;139134;-79
2023/10/05 20:15:17;;;;;;;6.30;4.30;;;;;;;12.20;81.41;100392.06;217151;1261;139879;-77
2023/10/05 20:20:29;;;;;;;7.50;4.20;;;;;;;12.14;81.31;100395.85;217456;1264;141469;-79
2023/10/05 20:25:42;;;;;;;11.10;5.40;;;;;;;12.09;81.64;100405.13;216844;1263;140349;-78
2023/10/05 20:30:50;;;;;;;6.90;4.30;;;;;;;12.03;81.42;100407.44;217132;1263;139736;-72
2023/10/05 20:36:01;;;;;;;6.80;4.20;;;;;;;11.93;81.59;100406.63;216913;1263;140976;-72
2023/10/05 20:41:06;;;;;;;10.90;5.40;;;;;;;11.86;81.70;100411.75;216786;1264;140456;-74
2023/10/05 20:46:11;;;;;;;7.60;4.30;;;;;;;11.81;81.59;100415.52;216959;1264;141063;-74
2023/10/05 20:51:16;;;;;;;5.60;4.70;;;;;;;11.74;81.68;100413.77;217580;1263;140285;-75
2023/10/05 20:56:21;;;;;;;6.50;5.20;;;;;;;11.67;81.57;100416.60;217155;1264;140775;-75
2023/10/05 21:01:26;;;;;;;7.90;5.70;;;;;;;11.61;82.12;100417.06;216986;1267;142802;-73
2023/10/05 21:06:35;;;;;;;9.10;4.90;;;;;;;11.55;81.96;100416.33;217617;1263;139973;-76
2023/10/05 21:11:40;;;;;;;9.20;4.20;;;;;;;11.47;82.02;100421.05;217623;1262;140444;-75
2023/10/05 21:16:45;;;;;;;3.80;3.40;;;;;;;11.40;81.97;100425.44;217272;1263;140721;-77
2023/10/05 21:21:52;;;;;;;3.00;2.80;;;;;;;11.34;82.15;100428.25;217798;1263;140266;-75
2023/10/05 21:26:57;;;;;;;6.90;4.00;;;;;;;11.29;82.44;100425.25;216914;1263;623245;-76
2023/10/05 21:32:03;;;;;;;8.30;4.40;;;;;;;11.23;82.35;100427.25;217227;1261;140132;-74
2023/10/05 21:37:08;;;;;;;5.30;4.50;;;;;;;11.18;82.42;100429.48;217114;1260;140531;-76
2023/10/05 21:42:12;;;;;;;5.20;4.00;;;;;;;11.11;82.63;100430.56;217257;1261;139434;-76
2023/10/05 21:47:17;;;;;;;11.80;5.60;;;;;;;11.05;83.06;100434.55;217077;1260;140424;-77
2023/10/05 21:52:22;;;;;;;7.00;5.40;;;;;;;11.04;83.29;100438.34;217505;1259;140027;-75
2023/10/05 21:57:27;;;;;;;10.00;5.50;;;;;;;11.01;83.48;100442.64;217088;1260;139492;-73
2023/10/05 22:02:33;;;;;;;7.60;4.70;;;;;;;11.04;83.69;100449.34;217753;1259;140046;-79
2023/10/05 22:07:38;;;;;;;4.00;3.70;;;;;;;11.08;84.08;100449.36;217481;1259;139579;-78
2023/10/05 22:12:45;;;;;;;13.40;6.30;;;;;;;11.09;84.07;100457.30;217771;1259;140594;-80
2023/10/05 22:17:49;;;;;;;8.30;5.80;;;;;;;11.12;84.42;100459.50;218119;1259;140034;-75
2023/10/05 22:22:55;;;;;;;10.60;4.60;;;;;;;11.16;84.29;100462.26;217331;1260;140167;-79
2023/10/05 22:28:00;;;;;;;8.40;5.70;;;;;;;11.16;84.31;100459.79;217204;1260;140106;-78
2023/10/05 22:33:06;;;;;;;8.20;5.70;;;;;;;11.15;84.74;100464.10;217339;1260;141735;-75
2023/10/05 22:38:11;;;;;;;6.50;5.10;;;;;;;11.16;84.75;100464.35;218497;1260;140267;-74
2023/10/05 22:43:20;;;;;;;6.50;5.60;;;;;;;11.14;84.80;100466.01;217781;1260;139900;-74
2023/10/05 22:48:25;;;;;;;8.80;6.60;;;;;;;11.13;85.05;100462.77;217831;1261;140701;-82
2023/10/05 22:53:32;;;;;;;8.20;6.00;;;;;;;11.16;85.20;100468.00;217539;1261;139838;-81
2023/10/05 22:58:38;;;;;;;8.10;5.30;;;;;;;11.15;85.15;100475.55;217400;1261;141281;-74
2023/10/05 23:03:43;;;;;;;6.70;6.00;;;;;;;11.12;85.09;100482.30;217042;1259;139019;-79
2023/10/05 23:08:49;;;;;;;10.80;6.60;;;;;;;11.09;85.24;100490.48;219774;1259;140466;-76
2023/10/05 23:13:54;;;;;;;15.60;6.50;;;;;;;11.07;85.26;100497.67;217051;1261;139649;-78
2023/10/05 23:19:00;;;;;;;9.90;5.90;;;;;;;11.04;85.16;100502.83;217126;1259;140286;-80
2023/10/05 23:24:05;;;;;;;9.50;5.80;;;;;;;11.02;85.53;100508.46;218078;1259;141203;-81
2023/10/05 23:29:20;;;;;;;8.40;5.70;;;;;;;11.00;85.21;100506.86;217377;1259;140908;-79
2023/10/05 23:34:29;;;;;;;11.60;6.30;;;;;;;10.93;84.96;100506.92;217293;1260;162665;-78
2023/10/05 23:39:34;;;;;;;6.80;5.20;;;;;;;10.80;84.93;100505.25;217752;1259;140852;-77
2023/10/05 23:44:39;;;;;;;5.30;4.70;;;;;;;10.73;85.32;100514.45;218250;1259;140061;-75
2023/10/05 23:49:44;;;;;;;7.00;5.40;;;;;;;10.67;85.29;100519.98;217454;1259;140226;-72
2023/10/05 23:54:49;;;;;;;6.80;4.20;;;;;;;10.62;85.34;100525.05;217108;1260;139753;-78
2023/10/05 23:59:53;;;;;;;5.60;5.10;;;;;;;10.56;85.48;100527.13;217216;1259;139812;-81
